sensor_id;sensor_type;location;lat;lon;timestamp;P1;durP1;ratioP1;P2;durP2;ratioP2
38725;SDS011;24474;48.906;8.808;2023-06-26T00:01:25;7.47;;;5.88;;
38725;SDS011;24474;48.906;8.808;2023-06-26T00:03:54;8.85;;;6.05;;
38725;SDS011;24474;48.906;8.808;2023-06-26T00:06:20;7.30;;;5.82;;
38725;SDS011;24474;48.906;8.808;2023-06-26T00:08:46;7.70;;;5.97;;
38725;SDS011;24474;48.906;8.808;2023-06-26T00:11:11;7.85;;;5.93;;
38725;SDS011;24474;48.906;8.808;2023-06-26T00:13:37;7.78;;;5.45;;
38725;SDS011;24474;48.906;8.808;2023-06-26T00:16:02;8.48;;;5.82;;
38725;SDS011;24474;48.906;8.808;2023-06-26T00:18:28;8.15;;;6.00;;
38725;SDS011;24474;48.906;8.808;2023-06-26T00:20:54;8.90;;;5.80;;
38725;SDS011;24474;48.906;8.808;2023-06-26T00:23:20;8.75;;;6.25;;
38725;SDS011;24474;48.906;8.808;2023-06-26T00:25:46;6.95;;;5.65;;
38725;SDS011;24474;48.906;8.808;2023-06-26T00:28:11;8.07;;;5.88;;
38725;SDS011;24474;48.906;8.808;2023-06-26T00:30:37;7.47;;;5.82;;
38725;SDS011;24474;48.906;8.808;2023-06-26T00:33:03;7.38;;;5.50;;
38725;SDS011;24474;48.906;8.808;2023-06-26T00:35:28;8.55;;;5.50;;
38725;SDS011;24474;48.906;8.808;2023-06-26T00:37:54;8.40;;;6.32;;
38725;SDS011;24474;48.906;8.808;2023-06-26T00:40:20;10.38;;;6.07;;
38725;SDS011;24474;48.906;8.808;2023-06-26T00:42:45;8.48;;;6.00;;
38725;SDS011;24474;48.906;8.808;2023-06-26T00:45:11;8.02;;;6.07;;
38725;SDS011;24474;48.906;8.808;2023-06-26T00:47:37;8.15;;;6.05;;
38725;SDS011;24474;48.906;8.808;2023-06-26T00:50:03;8.45;;;5.63;;
38725;SDS011;24474;48.906;8.808;2023-06-26T00:52:30;7.72;;;5.70;;
38725;SDS011;24474;48.906;8.808;2023-06-26T00:54:56;9.07;;;6.10;;
38725;SDS011;24474;48.906;8.808;2023-06-26T00:57:22;6.50;;;5.38;;
38725;SDS011;24474;48.906;8.808;2023-06-26T00:59:49;8.30;;;5.97;;
38725;SDS011;24474;48.906;8.808;2023-06-26T01:02:15;8.70;;;6.53;;
38725;SDS011;24474;48.906;8.808;2023-06-26T01:04:54;7.88;;;6.13;;
38725;SDS011;24474;48.906;8.808;2023-06-26T01:07:19;8.25;;;5.57;;
38725;SDS011;24474;48.906;8.808;2023-06-26T01:09:47;8.98;;;5.88;;
38725;SDS011;24474;48.906;8.808;2023-06-26T01:12:13;9.18;;;6.45;;
38725;SDS011;24474;48.906;8.808;2023-06-26T01:14:39;8.48;;;6.00;;
38725;SDS011;24474;48.906;8.808;2023-06-26T01:17:06;7.88;;;5.70;;
38725;SDS011;24474;48.906;8.808;2023-06-26T01:19:37;8.23;;;6.05;;
38725;SDS011;24474;48.906;8.808;2023-06-26T01:28:13;7.35;;;5.72;;
38725;SDS011;24474;48.906;8.808;2023-06-26T01:30:42;8.93;;;6.68;;
38725;SDS011;24474;48.906;8.808;2023-06-26T01:33:10;8.27;;;6.28;;
38725;SDS011;24474;48.906;8.808;2023-06-26T01:35:37;7.75;;;5.93;;
38725;SDS011;24474;48.906;8.808;2023-06-26T01:38:13;8.50;;;6.32;;
38725;SDS011;24474;48.906;8.808;2023-06-26T01:40:43;8.27;;;5.93;;
38725;SDS011;24474;48.906;8.808;2023-06-26T01:43:12;8.63;;;6.10;;
38725;SDS011;24474;48.906;8.808;2023-06-26T01:45:59;10.75;;;6.05;;
38725;SDS011;24474;48.906;8.808;2023-06-26T01:48:33;8.35;;;6.25;;
38725;SDS011;24474;48.906;8.808;2023-06-26T01:51:10;8.75;;;6.25;;
38725;SDS011;24474;48.906;8.808;2023-06-26T01:53:41;7.90;;;5.88;;
38725;SDS011;24474;48.906;8.808;2023-06-26T01:56:13;9.85;;;6.05;;
38725;SDS011;24474;48.906;8.808;2023-06-26T01:58:43;8.18;;;5.95;;
38725;SDS011;24474;48.906;8.808;2023-06-26T02:01:10;8.18;;;6.15;;
38725;SDS011;24474;48.906;8.808;2023-06-26T02:03:37;8.65;;;5.80;;
38725;SDS011;24474;48.906;8.808;2023-06-26T02:06:05;8.55;;;6.30;;
38725;SDS011;24474;48.906;8.808;2023-06-26T02:08:30;7.68;;;5.95;;
38725;SDS011;24474;48.906;8.808;2023-06-26T02:10:56;7.75;;;6.00;;
38725;SDS011;24474;48.906;8.808;2023-06-26T02:13:22;7.80;;;6.32;;
38725;SDS011;24474;48.906;8.808;2023-06-26T02:15:51;8.95;;;5.90;;
38725;SDS011;24474;48.906;8.808;2023-06-26T02:18:16;7.68;;;5.82;;
38725;SDS011;24474;48.906;8.808;2023-06-26T02:20:42;8.77;;;6.22;;
38725;SDS011;24474;48.906;8.808;2023-06-26T02:23:09;7.68;;;6.03;;
38725;SDS011;24474;48.906;8.808;2023-06-26T02:25:35;7.95;;;6.32;;
38725;SDS011;24474;48.906;8.808;2023-06-26T02:28:00;9.70;;;6.30;;
38725;SDS011;24474;48.906;8.808;2023-06-26T02:30:26;8.55;;;6.60;;
38725;SDS011;24474;48.906;8.808;2023-06-26T02:32:52;8.88;;;6.07;;
38725;SDS011;24474;48.906;8.808;2023-06-26T02:35:17;7.55;;;6.00;;
38725;SDS011;24474;48.906;8.808;2023-06-26T02:37:43;7.50;;;5.55;;
38725;SDS011;24474;48.906;8.808;2023-06-26T02:40:12;7.93;;;5.82;;
38725;SDS011;24474;48.906;8.808;2023-06-26T02:42:38;8.48;;;5.95;;
38725;SDS011;24474;48.906;8.808;2023-06-26T02:45:04;9.90;;;5.90;;
38725;SDS011;24474;48.906;8.808;2023-06-26T02:47:32;8.98;;;6.10;;
38725;SDS011;24474;48.906;8.808;2023-06-26T02:49:58;7.47;;;5.85;;
38725;SDS011;24474;48.906;8.808;2023-06-26T02:52:26;8.00;;;5.90;;
38725;SDS011;24474;48.906;8.808;2023-06-26T02:54:53;8.30;;;5.95;;
38725;SDS011;24474;48.906;8.808;2023-06-26T02:57:20;6.80;;;5.43;;
38725;SDS011;24474;48.906;8.808;2023-06-26T02:59:45;9.27;;;6.28;;
38725;SDS011;24474;48.906;8.808;2023-06-26T03:02:11;7.70;;;5.85;;
38725;SDS011;24474;48.906;8.808;2023-06-26T03:04:36;7.70;;;5.80;;
38725;SDS011;24474;48.906;8.808;2023-06-26T03:07:02;7.00;;;5.60;;
38725;SDS011;24474;48.906;8.808;2023-06-26T03:09:29;8.85;;;5.75;;
38725;SDS011;24474;48.906;8.808;2023-06-26T03:11:54;8.68;;;5.68;;
38725;SDS011;24474;48.906;8.808;2023-06-26T03:14:20;8.30;;;6.00;;
38725;SDS011;24474;48.906;8.808;2023-06-26T03:16:46;8.02;;;5.60;;
38725;SDS011;24474;48.906;8.808;2023-06-26T03:19:12;8.60;;;5.95;;
38725;SDS011;24474;48.906;8.808;2023-06-26T03:21:38;9.43;;;6.45;;
38725;SDS011;24474;48.906;8.808;2023-06-26T03:24:03;9.10;;;5.93;;
38725;SDS011;24474;48.906;8.808;2023-06-26T03:26:29;7.53;;;6.10;;
38725;SDS011;24474;48.906;8.808;2023-06-26T03:28:55;8.32;;;5.80;;
38725;SDS011;24474;48.906;8.808;2023-06-26T03:31:21;7.82;;;6.20;;
38725;SDS011;24474;48.906;8.808;2023-06-26T03:33:47;8.15;;;5.95;;
38725;SDS011;24474;48.906;8.808;2023-06-26T03:36:12;7.40;;;5.72;;
38725;SDS011;24474;48.906;8.808;2023-06-26T03:38:39;10.07;;;5.93;;
38725;SDS011;24474;48.906;8.808;2023-06-26T03:41:06;8.32;;;6.10;;
38725;SDS011;24474;48.906;8.808;2023-06-26T03:43:31;7.45;;;5.93;;
38725;SDS011;24474;48.906;8.808;2023-06-26T03:45:57;10.18;;;6.20;;
38725;SDS011;24474;48.906;8.808;2023-06-26T03:48:22;7.70;;;6.05;;
38725;SDS011;24474;48.906;8.808;2023-06-26T03:50:48;7.75;;;5.97;;
38725;SDS011;24474;48.906;8.808;2023-06-26T03:53:14;7.88;;;6.03;;
38725;SDS011;24474;48.906;8.808;2023-06-26T03:55:39;8.40;;;6.18;;
38725;SDS011;24474;48.906;8.808;2023-06-26T03:58:05;8.88;;;6.47;;
38725;SDS011;24474;48.906;8.808;2023-06-26T04:00:31;7.28;;;5.95;;
38725;SDS011;24474;48.906;8.808;2023-06-26T04:02:57;8.30;;;6.20;;
38725;SDS011;24474;48.906;8.808;2023-06-26T04:05:23;9.10;;;5.68;;
38725;SDS011;24474;48.906;8.808;2023-06-26T04:07:49;8.48;;;6.07;;
38725;SDS011;24474;48.906;8.808;2023-06-26T04:10:17;7.28;;;5.50;;
38725;SDS011;24474;48.906;8.808;2023-06-26T04:12:56;8.30;;;5.35;;
38725;SDS011;24474;48.906;8.808;2023-06-26T04:15:23;9.02;;;6.00;;
38725;SDS011;24474;48.906;8.808;2023-06-26T04:17:49;9.35;;;5.65;;
38725;SDS011;24474;48.906;8.808;2023-06-26T04:20:15;8.65;;;5.75;;
38725;SDS011;24474;48.906;8.808;2023-06-26T04:22:45;7.53;;;5.60;;
38725;SDS011;24474;48.906;8.808;2023-06-26T04:25:13;7.63;;;5.20;;
38725;SDS011;24474;48.906;8.808;2023-06-26T04:27:39;8.40;;;5.72;;
38725;SDS011;24474;48.906;8.808;2023-06-26T04:30:06;9.90;;;6.22;;
38725;SDS011;24474;48.906;8.808;2023-06-26T04:32:35;7.88;;;5.45;;
38725;SDS011;24474;48.906;8.808;2023-06-26T04:35:03;8.30;;;5.80;;
38725;SDS011;24474;48.906;8.808;2023-06-26T04:37:29;7.38;;;5.15;;
38725;SDS011;24474;48.906;8.808;2023-06-26T04:39:55;8.20;;;5.72;;
38725;SDS011;24474;48.906;8.808;2023-06-26T04:42:25;9.60;;;6.00;;
38725;SDS011;24474;48.906;8.808;2023-06-26T04:44:50;8.32;;;5.63;;
38725;SDS011;24474;48.906;8.808;2023-06-26T04:47:17;9.93;;;6.22;;
38725;SDS011;24474;48.906;8.808;2023-06-26T04:49:46;8.75;;;6.10;;
38725;SDS011;24474;48.906;8.808;2023-06-26T04:52:13;7.90;;;5.70;;
38725;SDS011;24474;48.906;8.808;2023-06-26T04:54:40;11.35;;;6.15;;
38725;SDS011;24474;48.906;8.808;2023-06-26T04:57:06;8.20;;;5.18;;
38725;SDS011;24474;48.906;8.808;2023-06-26T04:59:33;6.93;;;5.60;;
38725;SDS011;24474;48.906;8.808;2023-06-26T05:01:59;7.95;;;5.60;;
38725;SDS011;24474;48.906;8.808;2023-06-26T05:04:25;8.35;;;5.47;;
38725;SDS011;24474;48.906;8.808;2023-06-26T05:06:51;9.00;;;5.45;;
38725;SDS011;24474;48.906;8.808;2023-06-26T05:09:17;8.05;;;5.70;;
38725;SDS011;24474;48.906;8.808;2023-06-26T05:11:45;7.78;;;5.40;;
38725;SDS011;24474;48.906;8.808;2023-06-26T05:14:11;8.13;;;5.05;;
38725;SDS011;24474;48.906;8.808;2023-06-26T05:16:38;8.10;;;6.13;;
38725;SDS011;24474;48.906;8.808;2023-06-26T05:19:04;7.03;;;5.45;;
38725;SDS011;24474;48.906;8.808;2023-06-26T05:21:30;7.93;;;5.30;;
38725;SDS011;24474;48.906;8.808;2023-06-26T05:23:56;7.90;;;5.88;;
38725;SDS011;24474;48.906;8.808;2023-06-26T05:26:22;7.60;;;5.70;;
38725;SDS011;24474;48.906;8.808;2023-06-26T05:28:48;8.13;;;5.50;;
38725;SDS011;24474;48.906;8.808;2023-06-26T05:31:17;7.53;;;5.93;;
38725;SDS011;24474;48.906;8.808;2023-06-26T05:33:43;8.18;;;5.70;;
38725;SDS011;24474;48.906;8.808;2023-06-26T05:36:10;10.13;;;6.03;;
38725;SDS011;24474;48.906;8.808;2023-06-26T05:38:38;10.88;;;5.90;;
38725;SDS011;24474;48.906;8.808;2023-06-26T05:41:04;9.75;;;5.88;;
38725;SDS011;24474;48.906;8.808;2023-06-26T05:43:29;7.43;;;5.43;;
38725;SDS011;24474;48.906;8.808;2023-06-26T05:45:56;6.85;;;5.53;;
38725;SDS011;24474;48.906;8.808;2023-06-26T05:48:23;7.80;;;5.18;;
38725;SDS011;24474;48.906;8.808;2023-06-26T05:50:48;8.63;;;5.55;;
38725;SDS011;24474;48.906;8.808;2023-06-26T05:53:14;10.63;;;6.13;;
38725;SDS011;24474;48.906;8.808;2023-06-26T05:55:40;9.93;;;6.10;;
38725;SDS011;24474;48.906;8.808;2023-06-26T05:58:07;8.15;;;5.70;;
38725;SDS011;24474;48.906;8.808;2023-06-26T06:00:36;7.03;;;5.57;;
38725;SDS011;24474;48.906;8.808;2023-06-26T06:03:02;9.63;;;5.43;;
38725;SDS011;24474;48.906;8.808;2023-06-26T06:05:28;7.80;;;5.30;;
38725;SDS011;24474;48.906;8.808;2023-06-26T06:07:58;7.45;;;5.40;;
38725;SDS011;24474;48.906;8.808;2023-06-26T06:10:23;8.02;;;5.60;;
38725;SDS011;24474;48.906;8.808;2023-06-26T06:12:49;7.50;;;5.47;;
38725;SDS011;24474;48.906;8.808;2023-06-26T06:15:15;8.80;;;5.22;;
38725;SDS011;24474;48.906;8.808;2023-06-26T06:17:44;9.27;;;5.25;;
38725;SDS011;24474;48.906;8.808;2023-06-26T06:20:10;9.57;;;5.38;;
38725;SDS011;24474;48.906;8.808;2023-06-26T06:22:36;9.63;;;5.57;;
38725;SDS011;24474;48.906;8.808;2023-06-26T06:25:02;7.20;;;4.80;;
38725;SDS011;24474;48.906;8.808;2023-06-26T06:27:28;8.90;;;5.32;;
38725;SDS011;24474;48.906;8.808;2023-06-26T06:29:54;8.38;;;5.15;;
38725;SDS011;24474;48.906;8.808;2023-06-26T06:32:19;6.93;;;5.13;;
38725;SDS011;24474;48.906;8.808;2023-06-26T06:34:46;7.50;;;5.68;;
38725;SDS011;24474;48.906;8.808;2023-06-26T06:37:11;7.60;;;5.10;;
38725;SDS011;24474;48.906;8.808;2023-06-26T06:39:37;8.10;;;4.70;;
38725;SDS011;24474;48.906;8.808;2023-06-26T06:42:03;6.72;;;5.05;;
38725;SDS011;24474;48.906;8.808;2023-06-26T06:44:29;6.32;;;5.00;;
38725;SDS011;24474;48.906;8.808;2023-06-26T06:46:55;9.68;;;5.20;;
38725;SDS011;24474;48.906;8.808;2023-06-26T06:49:21;8.07;;;4.68;;
38725;SDS011;24474;48.906;8.808;2023-06-26T06:51:47;9.25;;;4.72;;
38725;SDS011;24474;48.906;8.808;2023-06-26T06:54:12;8.68;;;5.35;;
38725;SDS011;24474;48.906;8.808;2023-06-26T06:56:40;9.30;;;4.68;;
38725;SDS011;24474;48.906;8.808;2023-06-26T06:59:05;7.30;;;4.35;;
38725;SDS011;24474;48.906;8.808;2023-06-26T07:01:31;6.53;;;4.78;;
38725;SDS011;24474;48.906;8.808;2023-06-26T07:03:57;6.75;;;4.72;;
38725;SDS011;24474;48.906;8.808;2023-06-26T07:06:23;7.75;;;4.90;;
38725;SDS011;24474;48.906;8.808;2023-06-26T07:08:48;8.95;;;5.15;;
38725;SDS011;24474;48.906;8.808;2023-06-26T07:11:14;10.85;;;5.05;;
38725;SDS011;24474;48.906;8.808;2023-06-26T07:13:40;8.10;;;4.70;;
38725;SDS011;24474;48.906;8.808;2023-06-26T07:16:06;11.45;;;5.10;;
38725;SDS011;24474;48.906;8.808;2023-06-26T07:18:31;9.13;;;4.85;;
38725;SDS011;24474;48.906;8.808;2023-06-26T07:20:57;8.85;;;5.05;;
38725;SDS011;24474;48.906;8.808;2023-06-26T07:23:23;7.78;;;4.82;;
38725;SDS011;24474;48.906;8.808;2023-06-26T07:25:48;6.30;;;4.68;;
38725;SDS011;24474;48.906;8.808;2023-06-26T07:28:14;8.00;;;4.70;;
38725;SDS011;24474;48.906;8.808;2023-06-26T07:30:39;5.78;;;4.07;;
38725;SDS011;24474;48.906;8.808;2023-06-26T07:33:05;7.10;;;4.10;;
38725;SDS011;24474;48.906;8.808;2023-06-26T07:35:31;11.15;;;4.45;;
38725;SDS011;24474;48.906;8.808;2023-06-26T07:37:57;8.32;;;4.32;;
38725;SDS011;24474;48.906;8.808;2023-06-26T07:40:22;7.85;;;4.50;;
38725;SDS011;24474;48.906;8.808;2023-06-26T07:42:48;9.57;;;4.35;;
38725;SDS011;24474;48.906;8.808;2023-06-26T07:45:14;7.15;;;4.25;;
38725;SDS011;24474;48.906;8.808;2023-06-26T07:47:39;6.30;;;3.92;;
38725;SDS011;24474;48.906;8.808;2023-06-26T07:50:06;6.90;;;3.90;;
38725;SDS011;24474;48.906;8.808;2023-06-26T07:52:32;8.05;;;3.60;;
38725;SDS011;24474;48.906;8.808;2023-06-26T07:54:58;5.00;;;3.70;;
38725;SDS011;24474;48.906;8.808;2023-06-26T07:57:23;7.45;;;3.45;;
38725;SDS011;24474;48.906;8.808;2023-06-26T07:59:49;5.60;;;3.80;;
38725;SDS011;24474;48.906;8.808;2023-06-26T08:02:15;6.53;;;3.72;;
38725;SDS011;24474;48.906;8.808;2023-06-26T08:04:41;5.38;;;3.97;;
38725;SDS011;24474;48.906;8.808;2023-06-26T08:07:08;8.57;;;3.67;;
38725;SDS011;24474;48.906;8.808;2023-06-26T08:09:34;6.05;;;3.63;;
38725;SDS011;24474;48.906;8.808;2023-06-26T08:11:59;6.57;;;3.72;;
38725;SDS011;24474;48.906;8.808;2023-06-26T08:14:25;6.93;;;4.03;;
38725;SDS011;24474;48.906;8.808;2023-06-26T08:16:51;8.05;;;3.83;;
38725;SDS011;24474;48.906;8.808;2023-06-26T08:19:17;5.47;;;3.85;;
38725;SDS011;24474;48.906;8.808;2023-06-26T08:21:44;7.50;;;3.83;;
38725;SDS011;24474;48.906;8.808;2023-06-26T08:24:10;5.82;;;3.83;;
38725;SDS011;24474;48.906;8.808;2023-06-26T08:26:38;8.40;;;3.95;;
38725;SDS011;24474;48.906;8.808;2023-06-26T08:29:04;6.57;;;3.95;;
38725;SDS011;24474;48.906;8.808;2023-06-26T08:31:33;5.93;;;3.83;;
38725;SDS011;24474;48.906;8.808;2023-06-26T08:34:01;9.02;;;3.50;;
38725;SDS011;24474;48.906;8.808;2023-06-26T08:36:32;6.68;;;3.70;;
38725;SDS011;24474;48.906;8.808;2023-06-26T08:38:58;8.93;;;4.10;;
38725;SDS011;24474;48.906;8.808;2023-06-26T08:41:24;6.97;;;4.13;;
38725;SDS011;24474;48.906;8.808;2023-06-26T08:43:50;8.07;;;4.00;;
38725;SDS011;24474;48.906;8.808;2023-06-26T08:46:17;9.15;;;3.92;;
38725;SDS011;24474;48.906;8.808;2023-06-26T08:48:47;6.20;;;3.83;;
38725;SDS011;24474;48.906;8.808;2023-06-26T08:51:16;5.63;;;3.95;;
38725;SDS011;24474;48.906;8.808;2023-06-26T08:56:28;6.65;;;3.97;;
38725;SDS011;24474;48.906;8.808;2023-06-26T08:58:59;6.85;;;4.22;;
38725;SDS011;24474;48.906;8.808;2023-06-26T09:01:26;6.50;;;4.18;;
38725;SDS011;24474;48.906;8.808;2023-06-26T09:03:54;9.65;;;4.20;;
38725;SDS011;24474;48.906;8.808;2023-06-26T09:06:20;7.30;;;4.22;;
38725;SDS011;24474;48.906;8.808;2023-06-26T09:08:46;9.02;;;4.28;;
38725;SDS011;24474;48.906;8.808;2023-06-26T09:11:11;6.95;;;4.15;;
38725;SDS011;24474;48.906;8.808;2023-06-26T09:13:37;9.25;;;4.28;;
38725;SDS011;24474;48.906;8.808;2023-06-26T09:16:04;6.53;;;4.35;;
38725;SDS011;24474;48.906;8.808;2023-06-26T09:18:35;9.52;;;4.50;;
38725;SDS011;24474;48.906;8.808;2023-06-26T09:21:05;7.70;;;4.50;;
38725;SDS011;24474;48.906;8.808;2023-06-26T09:23:33;6.00;;;4.32;;
38725;SDS011;24474;48.906;8.808;2023-06-26T09:26:01;6.60;;;4.28;;
38725;SDS011;24474;48.906;8.808;2023-06-26T09:28:31;7.63;;;4.50;;
38725;SDS011;24474;48.906;8.808;2023-06-26T09:31:04;9.48;;;4.47;;
38725;SDS011;24474;48.906;8.808;2023-06-26T09:33:34;6.75;;;4.45;;
38725;SDS011;24474;48.906;8.808;2023-06-26T09:36:01;11.30;;;5.30;;
38725;SDS011;24474;48.906;8.808;2023-06-26T09:38:30;8.57;;;4.22;;
38725;SDS011;24474;48.906;8.808;2023-06-26T09:40:55;8.18;;;4.60;;
38725;SDS011;24474;48.906;8.808;2023-06-26T09:43:21;7.50;;;4.38;;
38725;SDS011;24474;48.906;8.808;2023-06-26T09:45:46;7.72;;;4.70;;
38725;SDS011;24474;48.906;8.808;2023-06-26T09:48:13;8.48;;;4.30;;
38725;SDS011;24474;48.906;8.808;2023-06-26T09:50:41;7.38;;;4.68;;
38725;SDS011;24474;48.906;8.808;2023-06-26T09:53:07;11.10;;;4.43;;
38725;SDS011;24474;48.906;8.808;2023-06-26T09:55:35;8.50;;;4.55;;
38725;SDS011;24474;48.906;8.808;2023-06-26T09:58:02;6.50;;;4.35;;
38725;SDS011;24474;48.906;8.808;2023-06-26T10:00:29;6.53;;;4.30;;
38725;SDS011;24474;48.906;8.808;2023-06-26T10:03:01;8.77;;;4.18;;
38725;SDS011;24474;48.906;8.808;2023-06-26T10:05:28;6.88;;;3.92;;
38725;SDS011;24474;48.906;8.808;2023-06-26T10:07:53;7.63;;;4.80;;
38725;SDS011;24474;48.906;8.808;2023-06-26T10:10:20;7.20;;;4.05;;
38725;SDS011;24474;48.906;8.808;2023-06-26T10:12:49;6.13;;;4.18;;
38725;SDS011;24474;48.906;8.808;2023-06-26T10:15:19;8.77;;;4.50;;
38725;SDS011;24474;48.906;8.808;2023-06-26T10:17:46;6.03;;;4.55;;
38725;SDS011;24474;48.906;8.808;2023-06-26T10:20:13;8.65;;;4.65;;
38725;SDS011;24474;48.906;8.808;2023-06-26T10:22:44;9.90;;;4.57;;
38725;SDS011;24474;48.906;8.808;2023-06-26T10:25:12;9.27;;;4.60;;
38725;SDS011;24474;48.906;8.808;2023-06-26T10:27:47;11.48;;;4.40;;
38725;SDS011;24474;48.906;8.808;2023-06-26T10:30:19;6.47;;;4.03;;
38725;SDS011;24474;48.906;8.808;2023-06-26T10:35:15;5.88;;;4.40;;
38725;SDS011;24474;48.906;8.808;2023-06-26T10:37:45;8.05;;;4.38;;
38725;SDS011;24474;48.906;8.808;2023-06-26T10:42:39;7.82;;;4.43;;
38725;SDS011;24474;48.906;8.808;2023-06-26T10:45:23;7.05;;;4.20;;
38725;SDS011;24474;48.906;8.808;2023-06-26T10:47:53;6.93;;;4.50;;
38725;SDS011;24474;48.906;8.808;2023-06-26T10:56:03;6.65;;;4.10;;
38725;SDS011;24474;48.906;8.808;2023-06-26T10:58:40;8.57;;;4.15;;
38725;SDS011;24474;48.906;8.808;2023-06-26T11:01:22;10.00;;;3.92;;
38725;SDS011;24474;48.906;8.808;2023-06-26T11:03:59;8.82;;;4.72;;
38725;SDS011;24474;48.906;8.808;2023-06-26T11:06:27;5.93;;;4.20;;
38725;SDS011;24474;48.906;8.808;2023-06-26T11:16:46;10.60;;;4.57;;
38725;SDS011;24474;48.906;8.808;2023-06-26T11:19:13;13.55;;;4.90;;
38725;SDS011;24474;48.906;8.808;2023-06-26T11:21:39;16.17;;;4.65;;
38725;SDS011;24474;48.906;8.808;2023-06-26T11:24:06;6.53;;;4.70;;
38725;SDS011;24474;48.906;8.808;2023-06-26T11:26:43;11.93;;;4.53;;
38725;SDS011;24474;48.906;8.808;2023-06-26T11:29:12;8.40;;;4.60;;
38725;SDS011;24474;48.906;8.808;2023-06-26T11:31:39;8.63;;;4.82;;
38725;SDS011;24474;48.906;8.808;2023-06-26T11:34:07;10.05;;;4.78;;
38725;SDS011;24474;48.906;8.808;2023-06-26T11:36:36;22.83;;;5.45;;
38725;SDS011;24474;48.906;8.808;2023-06-26T11:39:07;13.43;;;4.50;;
38725;SDS011;24474;48.906;8.808;2023-06-26T11:41:34;17.60;;;5.20;;
38725;SDS011;24474;48.906;8.808;2023-06-26T11:44:01;8.30;;;4.88;;
38725;SDS011;24474;48.906;8.808;2023-06-26T11:46:28;9.57;;;4.53;;
38725;SDS011;24474;48.906;8.808;2023-06-26T11:48:55;7.97;;;4.57;;
38725;SDS011;24474;48.906;8.808;2023-06-26T11:51:20;10.65;;;4.75;;
38725;SDS011;24474;48.906;8.808;2023-06-26T11:53:46;8.45;;;4.50;;
38725;SDS011;24474;48.906;8.808;2023-06-26T11:56:16;6.78;;;4.35;;
38725;SDS011;24474;48.906;8.808;2023-06-26T12:01:41;9.90;;;4.50;;
38725;SDS011;24474;48.906;8.808;2023-06-26T12:04:14;6.78;;;4.50;;
38725;SDS011;24474;48.906;8.808;2023-06-26T12:09:10;7.82;;;4.10;;
38725;SDS011;24474;48.906;8.808;2023-06-26T12:11:41;7.40;;;4.43;;
38725;SDS011;24474;48.906;8.808;2023-06-26T12:14:09;7.70;;;4.22;;
38725;SDS011;24474;48.906;8.808;2023-06-26T12:16:36;6.82;;;4.13;;
38725;SDS011;24474;48.906;8.808;2023-06-26T12:19:06;5.60;;;4.22;;
38725;SDS011;24474;48.906;8.808;2023-06-26T12:24:08;7.50;;;4.35;;
38725;SDS011;24474;48.906;8.808;2023-06-26T12:26:34;5.30;;;3.72;;
38725;SDS011;24474;48.906;8.808;2023-06-26T12:29:04;6.75;;;4.18;;
38725;SDS011;24474;48.906;8.808;2023-06-26T12:31:30;7.93;;;3.85;;
38725;SDS011;24474;48.906;8.808;2023-06-26T12:33:56;9.50;;;3.90;;
38725;SDS011;24474;48.906;8.808;2023-06-26T12:36:22;7.32;;;4.05;;
38725;SDS011;24474;48.906;8.808;2023-06-26T12:38:48;7.65;;;4.00;;
38725;SDS011;24474;48.906;8.808;2023-06-26T12:41:15;11.35;;;3.50;;
38725;SDS011;24474;48.906;8.808;2023-06-26T12:43:41;5.07;;;3.67;;
38725;SDS011;24474;48.906;8.808;2023-06-26T12:46:08;8.20;;;3.90;;
38725;SDS011;24474;48.906;8.808;2023-06-26T12:48:43;5.03;;;3.53;;
38725;SDS011;24474;48.906;8.808;2023-06-26T12:51:11;8.65;;;3.70;;
38725;SDS011;24474;48.906;8.808;2023-06-26T12:53:39;7.18;;;3.97;;
38725;SDS011;24474;48.906;8.808;2023-06-26T12:56:08;7.10;;;3.60;;
38725;SDS011;24474;48.906;8.808;2023-06-26T12:58:34;8.73;;;3.55;;
38725;SDS011;24474;48.906;8.808;2023-06-26T13:01:02;11.00;;;3.90;;
38725;SDS011;24474;48.906;8.808;2023-06-26T13:03:44;5.63;;;3.35;;
38725;SDS011;24474;48.906;8.808;2023-06-26T13:06:10;10.35;;;3.40;;
38725;SDS011;24474;48.906;8.808;2023-06-26T13:08:37;8.52;;;3.33;;
38725;SDS011;24474;48.906;8.808;2023-06-26T13:11:02;7.63;;;3.08;;
38725;SDS011;24474;48.906;8.808;2023-06-26T13:13:28;6.35;;;3.00;;
38725;SDS011;24474;48.906;8.808;2023-06-26T13:15:54;6.10;;;2.97;;
38725;SDS011;24474;48.906;8.808;2023-06-26T13:18:19;4.80;;;3.08;;
38725;SDS011;24474;48.906;8.808;2023-06-26T13:20:46;6.88;;;2.80;;
38725;SDS011;24474;48.906;8.808;2023-06-26T13:23:11;9.55;;;2.67;;
38725;SDS011;24474;48.906;8.808;2023-06-26T13:25:37;5.53;;;2.50;;
38725;SDS011;24474;48.906;8.808;2023-06-26T13:28:03;5.93;;;2.63;;
38725;SDS011;24474;48.906;8.808;2023-06-26T13:30:28;5.45;;;2.70;;
38725;SDS011;24474;48.906;8.808;2023-06-26T13:32:55;6.13;;;2.80;;
38725;SDS011;24474;48.906;8.808;2023-06-26T13:35:20;8.45;;;2.85;;
38725;SDS011;24474;48.906;8.808;2023-06-26T13:37:46;7.13;;;2.80;;
38725;SDS011;24474;48.906;8.808;2023-06-26T13:40:12;23.75;;;3.83;;
38725;SDS011;24474;48.906;8.808;2023-06-26T13:42:38;5.40;;;2.85;;
38725;SDS011;24474;48.906;8.808;2023-06-26T13:45:04;6.25;;;2.60;;
38725;SDS011;24474;48.906;8.808;2023-06-26T13:47:30;7.75;;;2.95;;
38725;SDS011;24474;48.906;8.808;2023-06-26T13:49:56;10.00;;;2.83;;
38725;SDS011;24474;48.906;8.808;2023-06-26T13:52:22;8.38;;;2.88;;
38725;SDS011;24474;48.906;8.808;2023-06-26T13:54:48;9.05;;;2.33;;
38725;SDS011;24474;48.906;8.808;2023-06-26T13:57:14;3.95;;;2.55;;
38725;SDS011;24474;48.906;8.808;2023-06-26T13:59:40;6.43;;;2.83;;
38725;SDS011;24474;48.906;8.808;2023-06-26T14:02:06;26.20;;;3.50;;
38725;SDS011;24474;48.906;8.808;2023-06-26T14:04:35;7.38;;;2.65;;
38725;SDS011;24474;48.906;8.808;2023-06-26T14:07:02;7.93;;;2.92;;
38725;SDS011;24474;48.906;8.808;2023-06-26T14:09:27;8.07;;;2.40;;
38725;SDS011;24474;48.906;8.808;2023-06-26T14:11:53;8.63;;;2.67;;
38725;SDS011;24474;48.906;8.808;2023-06-26T14:14:19;10.52;;;2.72;;
38725;SDS011;24474;48.906;8.808;2023-06-26T14:16:44;7.70;;;2.70;;
38725;SDS011;24474;48.906;8.808;2023-06-26T14:19:16;8.05;;;2.85;;
38725;SDS011;24474;48.906;8.808;2023-06-26T14:21:44;6.00;;;2.67;;
38725;SDS011;24474;48.906;8.808;2023-06-26T14:24:10;6.25;;;2.90;;
38725;SDS011;24474;48.906;8.808;2023-06-26T14:26:36;11.52;;;3.03;;
38725;SDS011;24474;48.906;8.808;2023-06-26T14:29:01;5.70;;;3.00;;
38725;SDS011;24474;48.906;8.808;2023-06-26T14:31:27;15.98;;;3.60;;
38725;SDS011;24474;48.906;8.808;2023-06-26T14:33:53;36.20;;;5.20;;
38725;SDS011;24474;48.906;8.808;2023-06-26T14:36:19;7.80;;;3.30;;
38725;SDS011;24474;48.906;8.808;2023-06-26T14:38:45;10.30;;;3.63;;
38725;SDS011;24474;48.906;8.808;2023-06-26T14:41:11;7.75;;;3.70;;
38725;SDS011;24474;48.906;8.808;2023-06-26T14:43:38;8.27;;;3.83;;
38725;SDS011;24474;48.906;8.808;2023-06-26T14:46:03;11.52;;;4.20;;
38725;SDS011;24474;48.906;8.808;2023-06-26T14:48:29;10.80;;;4.13;;
38725;SDS011;24474;48.906;8.808;2023-06-26T14:50:55;7.95;;;3.95;;
38725;SDS011;24474;48.906;8.808;2023-06-26T14:53:21;8.57;;;3.95;;
38725;SDS011;24474;48.906;8.808;2023-06-26T14:55:46;6.82;;;4.07;;
38725;SDS011;24474;48.906;8.808;2023-06-26T14:58:12;13.68;;;4.85;;
38725;SDS011;24474;48.906;8.808;2023-06-26T15:00:39;9.40;;;4.00;;
38725;SDS011;24474;48.906;8.808;2023-06-26T15:03:05;10.77;;;4.47;;
38725;SDS011;24474;48.906;8.808;2023-06-26T15:05:32;10.25;;;4.22;;
38725;SDS011;24474;48.906;8.808;2023-06-26T15:08:10;6.90;;;4.38;;
38725;SDS011;24474;48.906;8.808;2023-06-26T15:10:36;7.88;;;4.68;;
38725;SDS011;24474;48.906;8.808;2023-06-26T15:13:01;7.65;;;4.32;;
38725;SDS011;24474;48.906;8.808;2023-06-26T15:15:27;11.80;;;4.55;;
38725;SDS011;24474;48.906;8.808;2023-06-26T15:17:53;8.88;;;4.93;;
38725;SDS011;24474;48.906;8.808;2023-06-26T15:20:20;9.88;;;4.60;;